createdAt,value
2017-08-13T00:00:01.270Z,0
2017-08-13T00:01:00.827Z,0
2017-08-13T00:01:55.888Z,0
2017-08-13T00:02:50.937Z,0
2017-08-13T00:03:51.462Z,0
2017-08-13T00:04:46.111Z,0
2017-08-13T00:05:41.103Z,0
2017-08-13T00:06:42.587Z,0
2017-08-13T00:07:42.115Z,0
2017-08-13T00:08:42.129Z,0
2017-08-13T00:09:37.806Z,0
2017-08-13T00:10:31.310Z,0
2017-08-13T00:11:31.338Z,0
2017-08-13T00:12:26.435Z,0
2017-08-13T00:13:26.301Z,0
2017-08-13T00:14:20.554Z,0
2017-08-13T00:15:20.419Z,0
2017-08-13T00:16:15.575Z,0
2017-08-13T00:17:10.624Z,0
2017-08-13T00:18:10.498Z,0
2017-08-13T00:19:05.963Z,0
2017-08-13T00:20:00.791Z,0
2017-08-13T00:21:06.754Z,0
2017-08-13T00:22:00.557Z,0
2017-08-13T00:23:01.070Z,0
2017-08-13T00:23:56.170Z,0
2017-08-13T00:24:55.784Z,0
2017-08-13T00:25:55.757Z,0
2017-08-13T00:27:01.826Z,0
2017-08-13T00:27:56.816Z,0
2017-08-13T00:28:57.394Z,0
2017-08-13T00:29:52.069Z,0
2017-08-13T00:30:46.859Z,0
2017-08-13T00:31:48.073Z,0
2017-08-13T00:32:47.941Z,0
2017-08-13T00:33:48.047Z,0
2017-08-13T00:34:43.083Z,0
2017-08-13T00:35:37.344Z,0
2017-08-13T00:36:38.150Z,0
2017-08-13T00:37:38.178Z,0
2017-08-13T00:38:38.226Z,0
2017-08-13T00:39:33.272Z,0
2017-08-13T00:40:27.540Z,0
2017-08-13T00:41:27.407Z,0
2017-08-13T00:42:22.932Z,0
2017-08-13T00:43:17.898Z,0
2017-08-13T00:44:18.983Z,0
2017-08-13T00:45:18.393Z,0
2017-08-13T00:46:18.568Z,0
2017-08-13T00:47:13.564Z,0
2017-08-13T00:48:07.540Z,0
2017-08-13T00:49:07.633Z,0
2017-08-13T00:50:02.692Z,0
2017-08-13T00:51:08.579Z,0
2017-08-13T00:52:03.718Z,0
2017-08-13T00:52:57.728Z,0
2017-08-13T00:53:59.178Z,0
2017-08-13T00:54:53.849Z,0
2017-08-13T00:55:47.741Z,0
2017-08-13T00:56:47.842Z,0
2017-08-13T00:57:42.977Z,0
2017-08-13T00:58:42.931Z,0
2017-08-13T00:59:37.134Z,0
2017-08-13T01:00:37.235Z,0
2017-08-13T01:01:32.073Z,0
2017-08-13T01:02:27.013Z,0
2017-08-13T01:03:27.137Z,0
2017-08-13T01:04:22.503Z,0
2017-08-13T01:05:17.171Z,0
2017-08-13T01:06:17.247Z,0
2017-08-13T01:07:12.635Z,0
2017-08-13T01:08:07.565Z,0
2017-08-13T01:09:08.746Z,0
2017-08-13T01:10:09.664Z,0
2017-08-13T01:11:04.715Z,0
2017-08-13T01:11:58.766Z,0
2017-08-13T01:12:58.929Z,0
2017-08-13T01:13:58.819Z,0
2017-08-13T01:14:54.195Z,0
2017-08-13T01:15:47.630Z,0
2017-08-13T01:16:47.605Z,0
2017-08-13T01:17:42.570Z,0
2017-08-13T01:18:37.692Z,0
2017-08-13T01:19:39.233Z,0
2017-08-13T01:20:39.373Z,0
2017-08-13T01:21:39.073Z,0
2017-08-13T01:22:34.194Z,0
2017-08-13T01:23:28.092Z,0
2017-08-13T01:24:28.324Z,0
2017-08-13T01:25:23.388Z,0
2017-08-13T01:26:23.381Z,0
2017-08-13T01:27:16.900Z,0
2017-08-13T01:28:16.937Z,0
2017-08-13T01:29:12.033Z,0
2017-08-13T01:30:07.083Z,0
2017-08-13T01:31:07.644Z,0
2017-08-13T01:32:02.155Z,0
2017-08-13T01:32:57.161Z,0
2017-08-13T01:34:03.676Z,0
2017-08-13T01:34:57.208Z,0
2017-08-13T01:35:57.232Z,0
2017-08-13T01:36:52.427Z,0
2017-08-13T01:37:58.415Z,0
2017-08-13T01:38:58.573Z,0
2017-08-13T01:39:59.350Z,0
2017-08-13T01:40:53.458Z,0
2017-08-13T01:41:53.402Z,0
2017-08-13T01:42:48.481Z,0
2017-08-13T01:43:43.506Z,0
2017-08-13T01:44:44.585Z,0
2017-08-13T01:45:44.549Z,0
2017-08-13T01:46:44.580Z,0
2017-08-13T01:47:39.641Z,0
2017-08-13T01:48:33.645Z,0
2017-08-13T01:49:33.736Z,0
2017-08-13T01:50:29.329Z,0
2017-08-13T01:51:28.781Z,0
2017-08-13T01:52:22.911Z,0
2017-08-13T01:53:22.892Z,0
2017-08-13T01:54:17.913Z,0
2017-08-13T01:55:13.134Z,0
2017-08-13T01:56:13.011Z,0
2017-08-13T01:57:08.051Z,0
2017-08-13T01:58:03.090Z,0
2017-08-13T01:59:04.092Z,0
2017-08-13T02:00:04.101Z,0
2017-08-13T02:01:04.149Z,0
2017-08-13T02:01:59.176Z,0
2017-08-13T02:02:53.166Z,0
2017-08-13T02:03:53.433Z,0
2017-08-13T02:04:48.267Z,0
2017-08-13T02:05:48.262Z,0
2017-08-13T02:06:42.725Z,0
2017-08-13T02:07:36.759Z,0
2017-08-13T02:08:25.390Z,0
2017-08-13T02:09:14.414Z,0
2017-08-13T02:10:03.499Z,0
2017-08-13T02:10:51.555Z,0
2017-08-13T02:11:39.546Z,0
2017-08-13T02:12:27.695Z,0
2017-08-13T02:13:16.631Z,0
2017-08-13T02:14:04.785Z,0
2017-08-13T02:14:52.998Z,0
2017-08-13T02:15:42.420Z,0
2017-08-13T02:16:35.778Z,0
2017-08-13T02:17:23.972Z,0
2017-08-13T02:18:11.990Z,0
2017-08-13T02:19:01.553Z,0
2017-08-13T02:19:49.100Z,0
2017-08-13T02:20:37.030Z,0
2017-08-13T02:21:25.045Z,0
2017-08-13T02:22:13.125Z,0
2017-08-13T02:23:02.399Z,0
2017-08-13T02:23:50.350Z,0
2017-08-13T02:24:39.832Z,0
2017-08-13T02:25:28.293Z,0
2017-08-13T02:26:17.417Z,0
2017-08-13T02:27:05.386Z,0
2017-08-13T02:27:54.456Z,0
2017-08-13T02:28:42.523Z,0
2017-08-13T02:29:30.698Z,0
2017-08-13T02:30:20.107Z,0
2017-08-13T02:31:07.669Z,0
2017-08-13T02:31:56.235Z,0
2017-08-13T02:32:44.845Z,0
2017-08-13T02:33:33.745Z,0
2017-08-13T02:34:23.343Z,0
2017-08-13T02:35:11.231Z,0
2017-08-13T02:36:06.200Z,0
2017-08-13T02:36:55.427Z,0
2017-08-13T02:37:43.015Z,0
2017-08-13T02:38:32.014Z,0
2017-08-13T02:39:20.529Z,0
2017-08-13T02:40:08.025Z,0
2017-08-13T02:40:57.065Z,0
2017-08-13T02:41:45.204Z,0
2017-08-13T02:42:33.265Z,0
2017-08-13T02:43:21.576Z,0
2017-08-13T02:44:10.295Z,0
2017-08-13T02:44:58.682Z,0
2017-08-13T02:45:52.917Z,0
2017-08-13T02:46:41.508Z,0
2017-08-13T02:47:29.535Z,0
2017-08-13T02:48:17.530Z,0
2017-08-13T02:49:05.960Z,0
2017-08-13T02:49:54.646Z,0
2017-08-13T02:50:42.653Z,0
2017-08-13T02:51:30.648Z,0
2017-08-13T02:52:18.807Z,0
2017-08-13T02:53:06.831Z,0
2017-08-13T02:54:02.378Z,0
2017-08-13T02:54:50.025Z,0
2017-08-13T02:55:37.860Z,0
2017-08-13T02:56:26.545Z,0
2017-08-13T02:57:26.154Z,0
2017-08-13T02:58:14.062Z,0
2017-08-13T02:59:02.541Z,0
2017-08-13T02:59:50.449Z,0
2017-08-13T03:00:38.240Z,0
2017-08-13T03:01:27.146Z,0
2017-08-13T03:02:15.182Z,0
2017-08-13T03:03:09.251Z,0
2017-08-13T03:03:57.204Z,0
2017-08-13T03:04:46.610Z,0
2017-08-13T03:05:35.395Z,0
2017-08-13T03:06:23.376Z,0
2017-08-13T03:07:23.397Z,0
2017-08-13T03:08:23.517Z,0
2017-08-13T03:09:29.845Z,0
2017-08-13T03:10:29.582Z,0
2017-08-13T03:11:23.623Z,0
2017-08-13T03:12:24.610Z,0
2017-08-13T03:13:24.743Z,0
2017-08-13T03:14:20.147Z,0
2017-08-13T03:15:19.678Z,0
2017-08-13T03:16:13.778Z,0
2017-08-13T03:17:13.886Z,0
2017-08-13T03:18:08.772Z,0
2017-08-13T03:19:03.800Z,0
2017-08-13T03:20:03.964Z,0
2017-08-13T03:20:58.976Z,0
2017-08-13T03:21:53.997Z,0
2017-08-13T03:22:54.980Z,0
2017-08-13T03:23:55.367Z,0
2017-08-13T03:24:54.986Z,0
2017-08-13T03:25:50.208Z,0
2017-08-13T03:26:50.191Z,0
2017-08-13T03:27:50.130Z,4
2017-08-13T03:28:44.247Z,4
2017-08-13T03:29:44.561Z,4
2017-08-13T03:30:39.402Z,0
2017-08-13T03:31:39.384Z,4
2017-08-13T03:32:33.513Z,4
2017-08-13T03:33:33.324Z,4
2017-08-13T03:34:28.626Z,4
2017-08-13T03:35:28.439Z,4
2017-08-13T03:36:28.538Z,8
2017-08-13T03:37:34.534Z,8
2017-08-13T03:38:29.943Z,8
2017-08-13T03:39:23.952Z,8
2017-08-13T03:40:23.624Z,12
2017-08-13T03:41:18.840Z,16
2017-08-13T03:42:19.234Z,16
2017-08-13T03:43:12.755Z,16
2017-08-13T03:44:12.730Z,20
2017-08-13T03:45:07.736Z,24
2017-08-13T03:46:02.852Z,28
2017-08-13T03:47:03.860Z,32
2017-08-13T03:48:03.992Z,40
2017-08-13T03:49:03.978Z,44
2017-08-13T03:49:58.923Z,48
2017-08-13T03:50:53.163Z,56
2017-08-13T03:51:53.046Z,64
2017-08-13T03:52:48.064Z,72
2017-08-13T03:53:43.742Z,84
2017-08-13T03:54:42.998Z,96
2017-08-13T03:55:38.129Z,108
2017-08-13T03:56:33.384Z,120
2017-08-13T03:57:33.357Z,136
2017-08-13T03:58:28.177Z,148
2017-08-13T03:59:23.216Z,168
2017-08-13T04:00:17.318Z,188
2017-08-13T04:01:18.351Z,208
2017-08-13T04:02:18.921Z,232
2017-08-13T04:03:13.383Z,256
2017-08-13T04:04:13.493Z,284
2017-08-13T04:05:13.476Z,316
2017-08-13T04:06:13.426Z,348
2017-08-13T04:07:07.881Z,376
2017-08-13T04:08:08.644Z,416
2017-08-13T04:09:09.749Z,452
2017-08-13T04:10:09.680Z,496
2017-08-13T04:11:04.757Z,536
2017-08-13T04:12:04.800Z,580
2017-08-13T04:13:05.781Z,628
2017-08-13T04:14:00.501Z,672
2017-08-13T04:15:00.780Z,724
2017-08-13T04:16:00.879Z,776
2017-08-13T04:16:56.053Z,828
2017-08-13T04:17:50.834Z,880
2017-08-13T04:18:50.962Z,940
2017-08-13T04:19:45.966Z,1000
2017-08-13T04:20:40.994Z,1052
2017-08-13T04:21:35.001Z,1116
2017-08-13T04:22:35.162Z,1180
2017-08-13T04:23:30.171Z,1244
2017-08-13T04:24:30.232Z,1312
2017-08-13T04:25:31.737Z,1376
2017-08-13T04:26:25.143Z,1444
2017-08-13T04:27:25.381Z,1516
2017-08-13T04:28:20.304Z,1580
2017-08-13T04:29:15.635Z,1656
2017-08-13T04:30:09.353Z,1724
2017-08-13T04:31:10.397Z,1800
2017-08-13T04:32:11.364Z,1876
2017-08-13T04:33:06.458Z,1948
2017-08-13T04:34:06.603Z,2024
2017-08-13T04:35:12.543Z,2108
2017-08-13T04:36:07.576Z,2184
2017-08-13T04:37:07.635Z,2272
2017-08-13T04:38:07.571Z,2356
2017-08-13T04:39:02.433Z,2436
2017-08-13T04:40:03.068Z,2512
2017-08-13T04:41:02.722Z,2596
2017-08-13T04:41:58.067Z,2672
2017-08-13T04:42:52.847Z,2736
2017-08-13T04:43:53.833Z,2832
2017-08-13T04:44:53.973Z,2912
2017-08-13T04:45:49.146Z,2976
2017-08-13T04:46:44.100Z,3060
2017-08-13T04:47:43.967Z,3144
2017-08-13T04:48:39.413Z,3212
2017-08-13T04:49:34.403Z,3316
2017-08-13T04:50:28.036Z,3392
2017-08-13T04:51:29.405Z,3480
2017-08-13T04:52:24.155Z,3580
2017-08-13T04:53:24.573Z,3712
2017-08-13T04:54:24.416Z,3836
2017-08-13T04:55:24.293Z,3908
2017-08-13T04:56:24.676Z,4008
2017-08-13T04:57:24.472Z,4072
2017-08-13T04:58:24.569Z,4144
2017-08-13T04:59:24.442Z,4208
2017-08-13T05:00:24.652Z,4296
2017-08-13T05:01:24.602Z,4356
2017-08-13T05:02:30.489Z,4440
2017-08-13T05:03:25.469Z,4508
2017-08-13T05:04:19.689Z,4596
2017-08-13T05:05:19.845Z,4688
2017-08-13T05:06:15.130Z,4756
2017-08-13T05:07:09.823Z,4776
2017-08-13T05:08:10.102Z,5020
2017-08-13T05:09:05.104Z,5176
2017-08-13T05:10:00.074Z,5320
2017-08-13T05:10:53.716Z,6048
2017-08-13T05:11:54.917Z,6812
2017-08-13T05:12:50.232Z,6636
2017-08-13T05:13:50.159Z,6828
2017-08-13T05:14:56.061Z,8020
2017-08-13T05:15:55.991Z,8888
2017-08-13T05:16:57.080Z,9284
2017-08-13T05:17:58.113Z,10176
2017-08-13T05:18:59.513Z,9088
2017-08-13T05:19:53.566Z,11728
2017-08-13T05:20:54.614Z,14460
2017-08-13T05:21:54.643Z,11372
2017-08-13T05:22:49.662Z,13920
2017-08-13T05:23:44.656Z,12028
2017-08-13T05:24:44.785Z,11044
2017-08-13T05:25:39.799Z,10904
2017-08-13T05:26:34.824Z,11284
2017-08-13T05:27:28.579Z,11860
2017-08-13T05:28:29.850Z,12128
2017-08-13T05:29:30.810Z,12320
2017-08-13T05:30:31.178Z,12676
2017-08-13T05:31:30.850Z,12476
2017-08-13T05:32:31.045Z,12676
2017-08-13T05:33:31.171Z,12220
2017-08-13T05:34:31.107Z,12964
2017-08-13T05:35:31.125Z,13540
2017-08-13T05:36:31.224Z,14228
2017-08-13T05:37:31.316Z,15024
2017-08-13T05:38:31.423Z,15232
2017-08-13T05:39:31.441Z,15916
2017-08-13T05:40:31.392Z,16448
2017-08-13T05:41:31.429Z,17440
2017-08-13T05:42:32.494Z,18080
2017-08-13T05:43:27.444Z,17984
2017-08-13T05:44:21.553Z,17504
2017-08-13T05:45:21.645Z,17408
2017-08-13T05:46:16.679Z,17632
2017-08-13T05:47:11.624Z,18208
2017-08-13T05:48:00.769Z,19328
2017-08-13T05:48:55.767Z,22464
2017-08-13T05:49:49.812Z,26848
2017-08-13T05:50:43.932Z,28416
2017-08-13T05:51:38.865Z,23360
2017-08-13T05:52:32.898Z,11008
2017-08-13T05:53:21.020Z,0
2017-08-13T05:54:15.082Z,0
2017-08-13T05:55:09.029Z,0
2017-08-13T05:56:03.078Z,2528
2017-08-13T05:56:58.129Z,27136
2017-08-13T05:57:46.246Z,46560
2017-08-13T05:58:35.238Z,54816
2017-08-13T05:59:23.326Z,49632
2017-08-13T06:00:11.291Z,37184
2017-08-13T06:00:59.398Z,25440
2017-08-13T06:01:47.513Z,18112
2017-08-13T06:02:36.564Z,17120
2017-08-13T06:03:30.638Z,20384
2017-08-13T06:04:30.569Z,27456
2017-08-13T06:05:25.621Z,33696
2017-08-13T06:06:20.664Z,35008
2017-08-13T06:07:20.751Z,31520
2017-08-13T06:08:15.792Z,29408
2017-08-13T06:09:10.900Z,27520
2017-08-13T06:09:58.891Z,23936
2017-08-13T06:10:58.920Z,20672
2017-08-13T06:11:47.004Z,19712
2017-08-13T06:12:35.076Z,19744
2017-08-13T06:13:23.178Z,22528
2017-08-13T06:14:12.210Z,24864
2017-08-13T06:15:00.228Z,30016
2017-08-13T06:15:48.291Z,35264
2017-08-13T06:16:37.332Z,28384
2017-08-13T06:17:31.339Z,27648
2017-08-13T06:18:31.406Z,22400
2017-08-13T06:19:31.548Z,20224
2017-08-13T06:20:31.576Z,30272
2017-08-13T06:21:31.511Z,29120
2017-08-13T06:22:31.629Z,29728
2017-08-13T06:23:31.611Z,29792
2017-08-13T06:24:32.678Z,29792
2017-08-13T06:25:27.845Z,30432
2017-08-13T06:26:21.779Z,32288
2017-08-13T06:27:22.869Z,37312
2017-08-13T06:28:17.947Z,38752
2017-08-13T06:29:18.031Z,38720
2017-08-13T06:30:17.900Z,37664
2017-08-13T06:31:18.009Z,36640
2017-08-13T06:32:18.185Z,35520
2017-08-13T06:33:18.123Z,35680
2017-08-13T06:34:18.281Z,36032
2017-08-13T06:35:18.337Z,35840
2017-08-13T06:36:18.348Z,35008
2017-08-13T06:37:18.452Z,34016
2017-08-13T06:38:18.432Z,33632
2017-08-13T06:39:18.497Z,34016
2017-08-13T06:40:18.518Z,35552
2017-08-13T06:41:18.519Z,37600
2017-08-13T06:42:18.601Z,38848
2017-08-13T06:43:18.691Z,38944
2017-08-13T06:44:24.714Z,39424
2017-08-13T06:45:24.821Z,39840
2017-08-13T06:46:25.876Z,41824
2017-08-13T06:47:26.911Z,44768
2017-08-13T06:48:28.017Z,46176
2017-08-13T06:49:21.912Z,46944
2017-08-13T06:50:22.035Z,46976
2017-08-13T06:51:16.963Z,45952
2017-08-13T06:52:12.196Z,45568
2017-08-13T06:53:06.190Z,45440
2017-08-13T06:54:06.370Z,44352
2017-08-13T06:55:01.325Z,44128
2017-08-13T06:55:56.374Z,43488
2017-08-13T06:56:56.381Z,42880
2017-08-13T06:57:51.414Z,42880
2017-08-13T06:58:46.618Z,42752
2017-08-13T06:59:40.656Z,42368
2017-08-13T07:00:41.742Z,42432
2017-08-13T07:01:36.722Z,43200
2017-08-13T07:02:36.773Z,45184
2017-08-13T07:03:36.841Z,48288
2017-08-13T07:04:36.903Z,51808
2017-08-13T07:05:36.926Z,54464
2017-08-13T07:06:36.930Z,55968
2017-08-13T07:07:37.023Z,55264
2017-08-13T07:08:37.068Z,53216
2017-08-13T07:09:37.037Z,51392
2017-08-13T07:10:37.078Z,50912
2017-08-13T07:11:37.236Z,53120
2017-08-13T07:12:37.262Z,55936
2017-08-13T07:13:37.305Z,58176
2017-08-13T07:14:37.360Z,59872
2017-08-13T07:15:37.447Z,61312
2017-08-13T07:16:37.448Z,59712
2017-08-13T07:17:37.495Z,58144
2017-08-13T07:18:37.510Z,56416
2017-08-13T07:19:37.656Z,56064
2017-08-13T07:20:37.778Z,53664
2017-08-13T07:21:37.762Z,50016
2017-08-13T07:22:37.766Z,46208
2017-08-13T07:23:32.834Z,44672
2017-08-13T07:24:20.934Z,44032
2017-08-13T07:25:10.046Z,45440
2017-08-13T07:26:10.080Z,48512
2017-08-13T07:27:11.095Z,52352
2017-08-13T07:28:05.185Z,55584
2017-08-13T07:28:54.183Z,58624
2017-08-13T07:29:43.298Z,62240
2017-08-13T07:30:31.265Z,62688
2017-08-13T07:31:25.372Z,60640
2017-08-13T07:32:14.426Z,58272
2017-08-13T07:33:03.601Z,56320
2017-08-13T07:33:51.547Z,55872
2017-08-13T07:34:46.715Z,57760
2017-08-13T07:35:35.722Z,60896
2017-08-13T07:36:30.723Z,65312
2017-08-13T07:37:24.799Z,68832
2017-08-13T07:38:19.846Z,72512
2017-08-13T07:39:08.178Z,74560
2017-08-13T07:39:56.995Z,74752
2017-08-13T07:40:51.084Z,72096
2017-08-13T07:41:39.048Z,68160
2017-08-13T07:42:28.206Z,63680
2017-08-13T07:43:22.171Z,59552
2017-08-13T07:44:22.276Z,57536
2017-08-13T07:45:10.397Z,58304
2017-08-13T07:46:04.484Z,60480
2017-08-13T07:46:52.460Z,60576
2017-08-13T07:47:46.527Z,60736
2017-08-13T07:48:40.556Z,61760
2017-08-13T07:49:29.679Z,65088
2017-08-13T07:50:23.734Z,68352
2017-08-13T07:51:23.755Z,72416
2017-08-13T07:52:17.854Z,77632
2017-08-13T07:53:12.874Z,81056
2017-08-13T07:54:07.005Z,83840
2017-08-13T07:54:55.138Z,85344
2017-08-13T07:55:55.995Z,83968
2017-08-13T07:56:57.151Z,78592
2017-08-13T07:57:51.573Z,72032
2017-08-13T07:58:45.203Z,70048
2017-08-13T07:59:45.256Z,66592
2017-08-13T08:00:45.353Z,66912
2017-08-13T08:01:40.557Z,67872
2017-08-13T08:02:34.460Z,69440
2017-08-13T08:03:28.618Z,68128
2017-08-13T08:04:28.593Z,67296
2017-08-13T08:05:22.676Z,65760
2017-08-13T08:06:22.696Z,63840
2017-08-13T08:07:10.842Z,62368
2017-08-13T08:07:58.870Z,60384
2017-08-13T08:08:47.894Z,59328
2017-08-13T08:09:36.981Z,60128
2017-08-13T08:10:31.000Z,60864
2017-08-13T08:11:24.986Z,60992
2017-08-13T08:12:19.172Z,60896
2017-08-13T08:13:19.197Z,60608
2017-08-13T08:14:14.406Z,60928
2017-08-13T08:15:08.356Z,61216
2017-08-13T08:16:08.437Z,61408
2017-08-13T08:17:02.397Z,64000
2017-08-13T08:17:57.592Z,56928
2017-08-13T08:18:57.493Z,72608
2017-08-13T08:19:51.725Z,71904
2017-08-13T08:20:40.622Z,72928
2017-08-13T08:21:40.798Z,73408
2017-08-13T08:22:29.861Z,75872
2017-08-13T08:23:23.973Z,73536
2017-08-13T08:24:11.989Z,68480
2017-08-13T08:25:06.131Z,19072
2017-08-13T08:25:54.061Z,18516
2017-08-13T08:26:48.128Z,28896
2017-08-13T08:27:37.205Z,80288
2017-08-13T08:28:37.303Z,81856
2017-08-13T08:29:26.261Z,82400
2017-08-13T08:30:15.467Z,79296
2017-08-13T08:31:10.410Z,75680
2017-08-13T08:32:05.565Z,71840
2017-08-13T08:33:06.560Z,70464
2017-08-13T08:34:00.648Z,71424
2017-08-13T08:34:49.723Z,73248
2017-08-13T08:35:44.715Z,74944
2017-08-13T08:36:44.782Z,77504
2017-08-13T08:37:39.816Z,78400
2017-08-13T08:38:34.911Z,78112
2017-08-13T08:39:23.984Z,79008
2017-08-13T08:40:18.017Z,80928
2017-08-13T08:41:07.109Z,82720
2017-08-13T08:41:56.208Z,83328
2017-08-13T08:42:51.207Z,82752
2017-08-13T08:43:46.241Z,81632
2017-08-13T08:44:41.340Z,80832
2017-08-13T08:45:30.430Z,78656
2017-08-13T08:46:25.581Z,76768
2017-08-13T08:47:20.513Z,74528
2017-08-13T08:48:15.656Z,73696
2017-08-13T08:49:09.709Z,72288
2017-08-13T08:50:03.750Z,71840
2017-08-13T08:50:57.765Z,71456
2017-08-13T08:51:51.850Z,72544
2017-08-13T08:52:51.904Z,71616
2017-08-13T08:53:40.015Z,67616
2017-08-13T08:54:34.006Z,65792
2017-08-13T08:55:34.141Z,65376
2017-08-13T08:56:22.111Z,68640
2017-08-13T08:57:17.266Z,67936
2017-08-13T08:58:06.357Z,70752
2017-08-13T08:59:01.370Z,72928
2017-08-13T08:59:50.419Z,73760
2017-08-13T09:00:44.503Z,76000
2017-08-13T09:01:33.547Z,74496
2017-08-13T09:02:34.551Z,73248
2017-08-13T09:03:22.710Z,72416
2017-08-13T09:04:11.746Z,69856
2017-08-13T09:05:05.796Z,49536
2017-08-13T09:05:54.823Z,65760
2017-08-13T09:06:49.982Z,68992
2017-08-13T09:07:43.965Z,73248
2017-08-13T09:08:39.007Z,74656
2017-08-13T09:09:39.066Z,77504
2017-08-13T09:10:33.146Z,77920
2017-08-13T09:11:27.149Z,76832
2017-08-13T09:12:16.234Z,75680
2017-08-13T09:13:10.378Z,72416
2017-08-13T09:14:16.292Z,71424
2017-08-13T09:15:10.464Z,72896
2017-08-13T09:16:05.482Z,75168
2017-08-13T09:17:00.576Z,76768
2017-08-13T09:17:54.697Z,79104
2017-08-13T09:18:48.666Z,80352
2017-08-13T09:19:43.728Z,81536
2017-08-13T09:20:37.819Z,83328
2017-08-13T09:21:26.880Z,83808
2017-08-13T09:22:14.921Z,84896
2017-08-13T09:23:09.939Z,86080
2017-08-13T09:24:04.068Z,86688
2017-08-13T09:25:04.107Z,84608
2017-08-13T09:25:59.117Z,83680
2017-08-13T09:26:47.240Z,82528
2017-08-13T09:27:42.366Z,79552
2017-08-13T09:28:43.272Z,78656
2017-08-13T09:29:37.452Z,75840
2017-08-13T09:30:25.501Z,72832
2017-08-13T09:31:26.535Z,68640
2017-08-13T09:32:20.551Z,65824
2017-08-13T09:33:09.623Z,64864
2017-08-13T09:33:58.714Z,68736
2017-08-13T09:34:47.792Z,70976
2017-08-13T09:35:36.826Z,71648
2017-08-13T09:36:31.923Z,73184
2017-08-13T09:37:31.971Z,73216
2017-08-13T09:38:20.983Z,72032
2017-08-13T09:39:15.185Z,73856
2017-08-13T09:40:09.126Z,46368
2017-08-13T09:41:03.186Z,27104
2017-08-13T09:41:52.282Z,75232
2017-08-13T09:42:52.424Z,76448
2017-08-13T09:43:47.503Z,79072
2017-08-13T09:44:41.598Z,77888
2017-08-13T09:45:41.644Z,76864
2017-08-13T09:46:35.617Z,75488
2017-08-13T09:47:24.799Z,74944
2017-08-13T09:48:19.687Z,78752
2017-08-13T09:49:08.754Z,79840
2017-08-13T09:50:02.869Z,80224
2017-08-13T09:50:57.970Z,82656
2017-08-13T09:51:52.976Z,51552
2017-08-13T09:52:59.049Z,27136
2017-08-13T09:53:59.021Z,87648
2017-08-13T09:54:54.102Z,89248
2017-08-13T09:55:43.228Z,86976
2017-08-13T09:56:32.306Z,89120
2017-08-13T09:57:26.370Z,89280
2017-08-13T09:58:15.381Z,85152
2017-08-13T09:59:10.704Z,82048
2017-08-13T10:00:04.534Z,82592
2017-08-13T10:00:53.629Z,80960
2017-08-13T10:01:48.710Z,82176
2017-08-13T10:02:48.818Z,82688
2017-08-13T10:03:48.747Z,84832
2017-08-13T10:04:54.890Z,87328
2017-08-13T10:05:54.901Z,87744
2017-08-13T10:06:54.928Z,87104
2017-08-13T10:07:49.045Z,87840
2017-08-13T10:08:44.064Z,89440
2017-08-13T10:09:38.152Z,89472
2017-08-13T10:10:27.335Z,87360
2017-08-13T10:11:22.283Z,90112
2017-08-13T10:12:16.407Z,88896
2017-08-13T10:13:11.326Z,91648
2017-08-13T10:14:05.511Z,91136
2017-08-13T10:14:54.594Z,93056
2017-08-13T10:15:43.533Z,94336
2017-08-13T10:16:37.682Z,91904
2017-08-13T10:17:31.699Z,38528
2017-08-13T10:18:20.821Z,29376
2017-08-13T10:19:15.870Z,27008
2017-08-13T10:20:15.905Z,27200
2017-08-13T10:21:10.988Z,27424
2017-08-13T10:22:05.953Z,26336
2017-08-13T10:22:54.119Z,26496
2017-08-13T10:23:49.248Z,88128
2017-08-13T10:24:43.304Z,87840
2017-08-13T10:25:37.349Z,87456
2017-08-13T10:26:37.302Z,83360
2017-08-13T10:27:26.264Z,80224
2017-08-13T10:28:20.460Z,77184
2017-08-13T10:29:20.824Z,76416
2017-08-13T10:30:15.640Z,35264
2017-08-13T10:31:03.731Z,41152
2017-08-13T10:31:58.658Z,29888
2017-08-13T10:32:53.764Z,30528
2017-08-13T10:33:41.905Z,32832
2017-08-13T10:34:35.967Z,77568
2017-08-13T10:35:31.003Z,93504
2017-08-13T10:36:19.980Z,75840
2017-08-13T10:37:15.053Z,35232
2017-08-13T10:38:09.147Z,30944
2017-08-13T10:39:09.274Z,20320
2017-08-13T10:40:03.242Z,15664
2017-08-13T10:40:57.742Z,13248
2017-08-13T10:41:51.407Z,11704
2017-08-13T10:42:45.396Z,10868
2017-08-13T10:43:39.422Z,10416
2017-08-13T10:44:34.559Z,10620
2017-08-13T10:45:34.537Z,12076
2017-08-13T10:46:28.677Z,14072
2017-08-13T10:47:22.726Z,16224
2017-08-13T10:48:22.847Z,18336
2017-08-13T10:49:17.930Z,18592
2017-08-13T10:50:18.040Z,18208
2017-08-13T10:51:13.012Z,17056
2017-08-13T10:52:07.997Z,15536
2017-08-13T10:53:09.062Z,14020
2017-08-13T10:54:04.210Z,12272
2017-08-13T10:54:53.251Z,11056
2017-08-13T10:55:54.291Z,10048
2017-08-13T10:56:43.320Z,9764
2017-08-13T10:57:38.386Z,10132
2017-08-13T10:58:33.430Z,11300
2017-08-13T10:59:22.599Z,13256
2017-08-13T11:00:17.711Z,14516
2017-08-13T11:01:11.627Z,16544
2017-08-13T11:02:05.783Z,19680
2017-08-13T11:02:59.687Z,22560
2017-08-13T11:03:54.747Z,25216
2017-08-13T11:04:48.708Z,27296
2017-08-13T11:05:48.806Z,28800
2017-08-13T11:06:37.941Z,29216
2017-08-13T11:07:31.996Z,29664
2017-08-13T11:08:27.085Z,31072
2017-08-13T11:09:15.994Z,32032
2017-08-13T11:10:10.103Z,32448
2017-08-13T11:11:05.138Z,31712
2017-08-13T11:12:00.182Z,29888
2017-08-13T11:12:54.202Z,29664
2017-08-13T11:13:54.563Z,30080
2017-08-13T11:14:42.284Z,29824
2017-08-13T11:15:37.404Z,29824
2017-08-13T11:16:25.400Z,29760
2017-08-13T11:17:13.493Z,29472
2017-08-13T11:18:13.538Z,28704
2017-08-13T11:19:07.628Z,28992
2017-08-13T11:20:01.732Z,30752
2017-08-13T11:20:50.612Z,33472
2017-08-13T11:21:44.850Z,38464
2017-08-13T11:22:38.906Z,43808
2017-08-13T11:23:27.956Z,62048
2017-08-13T11:24:21.918Z,53760
2017-08-13T11:25:10.016Z,60256
2017-08-13T11:26:04.102Z,54272
2017-08-13T11:26:58.137Z,54560
2017-08-13T11:27:52.168Z,45792
2017-08-13T11:28:53.191Z,63200
2017-08-13T11:29:54.206Z,72096
2017-08-13T11:30:42.328Z,37696
2017-08-13T11:31:31.271Z,33504
2017-08-13T11:32:25.416Z,32128
2017-08-13T11:33:19.559Z,39584
2017-08-13T11:34:13.789Z,93952
2017-08-13T11:35:02.618Z,66368
2017-08-13T11:35:56.664Z,34592
2017-08-13T11:36:44.726Z,95520
2017-08-13T11:37:38.803Z,92288
2017-08-13T11:38:32.848Z,87424
2017-08-13T11:39:26.904Z,94560
2017-08-13T11:40:16.029Z,42848
2017-08-13T11:41:09.928Z,97632
2017-08-13T11:41:59.117Z,44256
2017-08-13T11:43:05.097Z,41728
2017-08-13T11:43:53.236Z,49888
2017-08-13T11:44:48.223Z,42496
2017-08-13T11:45:42.216Z,38528
2017-08-13T11:46:30.368Z,47584
2017-08-13T11:47:24.475Z,54048
2017-08-13T11:48:13.489Z,96320
2017-08-13T11:49:02.465Z,36480
2017-08-13T11:49:57.500Z,45600
2017-08-13T11:50:45.637Z,45952
2017-08-13T11:51:39.761Z,43072
2017-08-13T11:52:28.752Z,39936
2017-08-13T11:53:22.849Z,39360
2017-08-13T11:54:22.954Z,40128
2017-08-13T11:55:17.026Z,39808
2017-08-13T11:56:11.936Z,86880
2017-08-13T11:57:00.967Z,93504
2017-08-13T11:57:55.113Z,87200
2017-08-13T11:58:50.128Z,81888
2017-08-13T11:59:45.356Z,46016
2017-08-13T12:00:39.300Z,42112
2017-08-13T12:01:34.312Z,64192
2017-08-13T12:02:34.351Z,30144
2017-08-13T12:03:28.440Z,71808
2017-08-13T12:04:17.479Z,42752
2017-08-13T12:05:11.424Z,88192
2017-08-13T12:06:05.550Z,83136
2017-08-13T12:06:59.700Z,75936
2017-08-13T12:07:48.780Z,70048
2017-08-13T12:08:42.759Z,67296
2017-08-13T12:09:30.800Z,69472
2017-08-13T12:10:30.961Z,73504
2017-08-13T12:11:18.909Z,78112
2017-08-13T12:12:12.918Z,81344
2017-08-13T12:13:08.075Z,82816
2017-08-13T12:13:57.203Z,82688
2017-08-13T12:14:52.221Z,79360
2017-08-13T12:15:46.285Z,80128
2017-08-13T12:16:41.330Z,72768
2017-08-13T12:17:36.379Z,18652
2017-08-13T12:18:25.375Z,72128
2017-08-13T12:19:13.724Z,74080
2017-08-13T12:20:07.609Z,74528
2017-08-13T12:20:55.647Z,58560
2017-08-13T12:21:44.691Z,71232
2017-08-13T12:22:33.670Z,71904
2017-08-13T12:23:28.887Z,66912
2017-08-13T12:24:17.974Z,67776